sensor_id;sensor_type;location;lat;lon;timestamp;P1;durP1;ratioP1;P2;durP2;ratioP2
9958;SDS011;5019;48.012;7.812;2023-02-28T00:00:32;2.20;;;2.10;;
9958;SDS011;5019;48.012;7.812;2023-02-28T00:02:59;2.50;;;2.40;;
9958;SDS011;5019;48.012;7.812;2023-02-28T00:05:26;4.20;;;2.60;;
9958;SDS011;5019;48.012;7.812;2023-02-28T00:07:52;2.33;;;2.23;;
9958;SDS011;5019;48.012;7.812;2023-02-28T00:10:19;3.07;;;2.77;;
9958;SDS011;5019;48.012;7.812;2023-02-28T00:12:48;2.80;;;2.60;;
9958;SDS011;5019;48.012;7.812;2023-02-28T00:15:15;4.63;;;2.63;;
9958;SDS011;5019;48.012;7.812;2023-02-28T00:17:41;2.20;;;2.10;;
9958;SDS011;5019;48.012;7.812;2023-02-28T00:20:07;2.33;;;2.23;;
9958;SDS011;5019;48.012;7.812;2023-02-28T00:22:35;2.13;;;2.03;;
9958;SDS011;5019;48.012;7.812;2023-02-28T00:25:01;5.10;;;2.50;;
9958;SDS011;5019;48.012;7.812;2023-02-28T00:27:28;2.80;;;2.60;;
9958;SDS011;5019;48.012;7.812;2023-02-28T00:29:54;2.07;;;2.00;;
9958;SDS011;5019;48.012;7.812;2023-02-28T00:32:20;3.00;;;2.70;;
9958;SDS011;5019;48.012;7.812;2023-02-28T00:34:46;2.50;;;2.40;;
9958;SDS011;5019;48.012;7.812;2023-02-28T00:37:12;2.37;;;2.27;;
9958;SDS011;5019;48.012;7.812;2023-02-28T00:39:38;2.43;;;2.23;;
9958;SDS011;5019;48.012;7.812;2023-02-28T00:42:04;1.97;;;1.87;;
9958;SDS011;5019;48.012;7.812;2023-02-28T00:44:31;2.43;;;2.33;;
9958;SDS011;5019;48.012;7.812;2023-02-28T00:46:57;3.33;;;2.00;;
9958;SDS011;5019;48.012;7.812;2023-02-28T00:49:24;3.33;;;2.60;;
9958;SDS011;5019;48.012;7.812;2023-02-28T00:51:50;2.47;;;2.27;;
9958;SDS011;5019;48.012;7.812;2023-02-28T00:54:16;3.13;;;2.20;;
9958;SDS011;5019;48.012;7.812;2023-02-28T00:56:42;2.70;;;2.50;;
9958;SDS011;5019;48.012;7.812;2023-02-28T00:59:08;2.60;;;2.50;;
9958;SDS011;5019;48.012;7.812;2023-02-28T01:01:34;2.10;;;1.90;;
9958;SDS011;5019;48.012;7.812;2023-02-28T01:04:00;4.20;;;1.93;;
9958;SDS011;5019;48.012;7.812;2023-02-28T01:06:26;2.00;;;1.90;;
9958;SDS011;5019;48.012;7.812;2023-02-28T01:08:52;2.00;;;1.90;;
9958;SDS011;5019;48.012;7.812;2023-02-28T01:11:18;2.43;;;2.23;;
9958;SDS011;5019;48.012;7.812;2023-02-28T01:13:45;3.90;;;2.77;;
9958;SDS011;5019;48.012;7.812;2023-02-28T01:16:12;12.10;;;2.60;;
9958;SDS011;5019;48.012;7.812;2023-02-28T01:18:39;2.00;;;1.90;;
9958;SDS011;5019;48.012;7.812;2023-02-28T01:21:05;5.10;;;3.40;;
9958;SDS011;5019;48.012;7.812;2023-02-28T01:23:32;4.00;;;3.63;;
9958;SDS011;5019;48.012;7.812;2023-02-28T01:26:03;2.23;;;2.10;;
9958;SDS011;5019;48.012;7.812;2023-02-28T01:28:29;1.70;;;1.60;;
9958;SDS011;5019;48.012;7.812;2023-02-28T01:30:55;2.17;;;2.07;;
9958;SDS011;5019;48.012;7.812;2023-02-28T01:33:22;6.50;;;3.60;;
9958;SDS011;5019;48.012;7.812;2023-02-28T01:35:48;2.10;;;2.00;;
9958;SDS011;5019;48.012;7.812;2023-02-28T01:38:14;1.40;;;1.40;;
9958;SDS011;5019;48.012;7.812;2023-02-28T01:40:40;3.47;;;3.27;;
9958;SDS011;5019;48.012;7.812;2023-02-28T01:43:23;3.27;;;3.03;;
9958;SDS011;5019;48.012;7.812;2023-02-28T01:45:49;2.50;;;2.40;;
9958;SDS011;5019;48.012;7.812;2023-02-28T01:48:15;2.90;;;2.70;;
9958;SDS011;5019;48.012;7.812;2023-02-28T01:50:42;2.17;;;1.98;;
9958;SDS011;5019;48.012;7.812;2023-02-28T01:53:11;2.25;;;2.15;;
9958;SDS011;5019;48.012;7.812;2023-02-28T01:55:38;2.00;;;1.60;;
9958;SDS011;5019;48.012;7.812;2023-02-28T01:58:05;2.17;;;1.52;;
9958;SDS011;5019;48.012;7.812;2023-02-28T02:00:31;1.70;;;1.70;;
9958;SDS011;5019;48.012;7.812;2023-02-28T02:02:59;4.17;;;3.77;;
9958;SDS011;5019;48.012;7.812;2023-02-28T02:05:29;3.37;;;3.10;;
9958;SDS011;5019;48.012;7.812;2023-02-28T02:08:04;2.42;;;2.33;;
9958;SDS011;5019;48.012;7.812;2023-02-28T02:10:40;2.10;;;2.00;;
9958;SDS011;5019;48.012;7.812;2023-02-28T02:13:13;3.00;;;2.80;;
9958;SDS011;5019;48.012;7.812;2023-02-28T02:18:29;4.33;;;2.07;;
9958;SDS011;5019;48.012;7.812;2023-02-28T02:39:27;2.60;;;2.40;;
9958;SDS011;5019;48.012;7.812;2023-02-28T02:41:56;7.20;;;3.65;;
9958;SDS011;5019;48.012;7.812;2023-02-28T02:44:30;2.50;;;1.93;;
9958;SDS011;5019;48.012;7.812;2023-02-28T02:46:58;2.30;;;2.20;;
9958;SDS011;5019;48.012;7.812;2023-02-28T02:49:27;1.50;;;1.50;;
9958;SDS011;5019;48.012;7.812;2023-02-28T02:51:54;3.53;;;2.80;;
9958;SDS011;5019;48.012;7.812;2023-02-28T02:54:26;4.63;;;2.90;;
9958;SDS011;5019;48.012;7.812;2023-02-28T02:56:53;2.30;;;2.20;;
9958;SDS011;5019;48.012;7.812;2023-02-28T02:59:21;3.60;;;2.60;;
9958;SDS011;5019;48.012;7.812;2023-02-28T03:01:50;2.40;;;2.30;;
9958;SDS011;5019;48.012;7.812;2023-02-28T03:04:17;3.43;;;3.13;;
9958;SDS011;5019;48.012;7.812;2023-02-28T03:06:44;2.08;;;1.98;;
9958;SDS011;5019;48.012;7.812;2023-02-28T03:09:09;1.70;;;1.60;;
9958;SDS011;5019;48.012;7.812;2023-02-28T03:11:36;2.23;;;2.13;;
9958;SDS011;5019;48.012;7.812;2023-02-28T03:21:40;2.77;;;2.67;;
9958;SDS011;5019;48.012;7.812;2023-02-28T03:24:27;2.90;;;2.80;;
9958;SDS011;5019;48.012;7.812;2023-02-28T03:27:31;1.35;;;1.35;;
9958;SDS011;5019;48.012;7.812;2023-02-28T03:29:58;2.08;;;1.98;;
9958;SDS011;5019;48.012;7.812;2023-02-28T03:32:28;2.70;;;2.50;;
9958;SDS011;5019;48.012;7.812;2023-02-28T03:34:57;1.85;;;1.75;;
9958;SDS011;5019;48.012;7.812;2023-02-28T03:37:24;3.08;;;2.97;;
9958;SDS011;5019;48.012;7.812;2023-02-28T03:39:59;2.75;;;1.80;;
9958;SDS011;5019;48.012;7.812;2023-02-28T03:42:27;2.55;;;2.45;;
9958;SDS011;5019;48.012;7.812;2023-02-28T03:44:56;2.63;;;2.53;;
9958;SDS011;5019;48.012;7.812;2023-02-28T03:52:34;2.78;;;2.58;;
9958;SDS011;5019;48.012;7.812;2023-02-28T03:55:02;2.40;;;2.30;;
9958;SDS011;5019;48.012;7.812;2023-02-28T04:00:12;4.57;;;4.33;;
9958;SDS011;5019;48.012;7.812;2023-02-28T04:02:40;2.38;;;2.28;;
9958;SDS011;5019;48.012;7.812;2023-02-28T04:05:06;1.83;;;1.75;;
9958;SDS011;5019;48.012;7.812;2023-02-28T04:07:32;2.85;;;2.65;;
9958;SDS011;5019;48.012;7.812;2023-02-28T04:09:59;4.45;;;3.55;;
9958;SDS011;5019;48.012;7.812;2023-02-28T04:12:25;3.80;;;3.53;;
9958;SDS011;5019;48.012;7.812;2023-02-28T04:14:51;3.45;;;2.85;;
9958;SDS011;5019;48.012;7.812;2023-02-28T04:17:17;4.00;;;1.93;;
9958;SDS011;5019;48.012;7.812;2023-02-28T04:19:43;2.58;;;2.47;;
9958;SDS011;5019;48.012;7.812;2023-02-28T04:22:10;3.37;;;2.03;;
9958;SDS011;5019;48.012;7.812;2023-02-28T04:24:36;1.90;;;1.88;;
9958;SDS011;5019;48.012;7.812;2023-02-28T04:27:06;2.92;;;2.75;;
9958;SDS011;5019;48.012;7.812;2023-02-28T04:29:32;4.10;;;3.40;;
9958;SDS011;5019;48.012;7.812;2023-02-28T04:31:58;4.03;;;3.20;;
9958;SDS011;5019;48.012;7.812;2023-02-28T04:34:26;2.27;;;2.17;;
9958;SDS011;5019;48.012;7.812;2023-02-28T04:36:52;1.97;;;1.87;;
9958;SDS011;5019;48.012;7.812;2023-02-28T04:39:22;2.20;;;2.10;;
9958;SDS011;5019;48.012;7.812;2023-02-28T04:41:48;1.67;;;1.60;;
9958;SDS011;5019;48.012;7.812;2023-02-28T04:44:15;3.30;;;3.00;;
9958;SDS011;5019;48.012;7.812;2023-02-28T04:46:41;3.63;;;3.30;;
9958;SDS011;5019;48.012;7.812;2023-02-28T04:49:08;7.47;;;2.50;;
9958;SDS011;5019;48.012;7.812;2023-02-28T04:51:34;2.53;;;2.43;;
9958;SDS011;5019;48.012;7.812;2023-02-28T04:54:00;2.83;;;2.63;;
9958;SDS011;5019;48.012;7.812;2023-02-28T04:56:26;7.80;;;3.53;;
9958;SDS011;5019;48.012;7.812;2023-02-28T04:58:52;3.20;;;3.00;;
9958;SDS011;5019;48.012;7.812;2023-02-28T05:01:23;3.00;;;2.80;;
9958;SDS011;5019;48.012;7.812;2023-02-28T05:03:49;2.37;;;2.27;;
9958;SDS011;5019;48.012;7.812;2023-02-28T05:06:16;2.23;;;2.13;;
9958;SDS011;5019;48.012;7.812;2023-02-28T05:08:42;2.08;;;1.98;;
9958;SDS011;5019;48.012;7.812;2023-02-28T05:11:13;1.83;;;1.73;;
9958;SDS011;5019;48.012;7.812;2023-02-28T05:13:39;3.20;;;3.00;;
9958;SDS011;5019;48.012;7.812;2023-02-28T05:16:05;1.73;;;1.63;;
9958;SDS011;5019;48.012;7.812;2023-02-28T05:18:31;2.97;;;2.87;;
9958;SDS011;5019;48.012;7.812;2023-02-28T05:20:57;3.63;;;2.73;;
9958;SDS011;5019;48.012;7.812;2023-02-28T05:23:23;2.13;;;2.03;;
9958;SDS011;5019;48.012;7.812;2023-02-28T05:25:49;1.90;;;1.80;;
9958;SDS011;5019;48.012;7.812;2023-02-28T05:28:16;2.10;;;2.00;;
9958;SDS011;5019;48.012;7.812;2023-02-28T05:30:42;3.13;;;2.93;;
9958;SDS011;5019;48.012;7.812;2023-02-28T05:33:10;3.17;;;2.87;;
9958;SDS011;5019;48.012;7.812;2023-02-28T05:35:37;2.88;;;2.78;;
9958;SDS011;5019;48.012;7.812;2023-02-28T05:38:03;1.48;;;1.48;;
9958;SDS011;5019;48.012;7.812;2023-02-28T05:40:29;3.10;;;2.90;;
9958;SDS011;5019;48.012;7.812;2023-02-28T05:42:55;5.70;;;2.37;;
9958;SDS011;5019;48.012;7.812;2023-02-28T05:45:21;1.33;;;1.33;;
9958;SDS011;5019;48.012;7.812;2023-02-28T05:47:47;2.90;;;2.70;;
9958;SDS011;5019;48.012;7.812;2023-02-28T05:50:13;2.23;;;2.13;;
9958;SDS011;5019;48.012;7.812;2023-02-28T05:52:39;2.83;;;2.60;;
9958;SDS011;5019;48.012;7.812;2023-02-28T05:55:06;3.88;;;3.58;;
9958;SDS011;5019;48.012;7.812;2023-02-28T05:57:32;2.37;;;2.20;;
9958;SDS011;5019;48.012;7.812;2023-02-28T05:59:58;2.90;;;2.60;;
9958;SDS011;5019;48.012;7.812;2023-02-28T06:02:23;3.90;;;3.30;;
9958;SDS011;5019;48.012;7.812;2023-02-28T06:04:49;6.73;;;2.93;;
9958;SDS011;5019;48.012;7.812;2023-02-28T06:07:15;3.60;;;3.40;;
9958;SDS011;5019;48.012;7.812;2023-02-28T06:09:42;2.95;;;2.75;;
9958;SDS011;5019;48.012;7.812;2023-02-28T06:12:09;2.85;;;2.65;;
9958;SDS011;5019;48.012;7.812;2023-02-28T06:14:35;5.72;;;3.25;;
9958;SDS011;5019;48.012;7.812;2023-02-28T06:17:01;3.95;;;2.60;;
9958;SDS011;5019;48.012;7.812;2023-02-28T06:19:28;2.78;;;2.58;;
9958;SDS011;5019;48.012;7.812;2023-02-28T06:21:55;2.67;;;2.50;;
9958;SDS011;5019;48.012;7.812;2023-02-28T06:24:22;3.10;;;3.00;;
9958;SDS011;5019;48.012;7.812;2023-02-28T06:26:48;3.03;;;2.85;;
9958;SDS011;5019;48.012;7.812;2023-02-28T06:29:14;2.53;;;2.43;;
9958;SDS011;5019;48.012;7.812;2023-02-28T06:31:42;3.22;;;3.05;;
9958;SDS011;5019;48.012;7.812;2023-02-28T06:34:08;2.00;;;1.90;;
9958;SDS011;5019;48.012;7.812;2023-02-28T06:36:36;2.63;;;2.40;;
9958;SDS011;5019;48.012;7.812;2023-02-28T06:39:02;3.08;;;2.90;;
9958;SDS011;5019;48.012;7.812;2023-02-28T06:41:28;2.20;;;2.10;;
9958;SDS011;5019;48.012;7.812;2023-02-28T06:43:54;3.60;;;3.30;;
9958;SDS011;5019;48.012;7.812;2023-02-28T06:46:20;1.98;;;1.85;;
9958;SDS011;5019;48.012;7.812;2023-02-28T06:48:47;2.40;;;2.30;;
9958;SDS011;5019;48.012;7.812;2023-02-28T06:51:14;1.90;;;1.88;;
9958;SDS011;5019;48.012;7.812;2023-02-28T06:53:40;2.65;;;2.50;;
9958;SDS011;5019;48.012;7.812;2023-02-28T06:56:07;4.35;;;1.45;;
9958;SDS011;5019;48.012;7.812;2023-02-28T06:58:34;3.47;;;3.28;;
9958;SDS011;5019;48.012;7.812;2023-02-28T07:01:00;2.60;;;2.50;;
9958;SDS011;5019;48.012;7.812;2023-02-28T07:03:26;3.78;;;3.50;;
9958;SDS011;5019;48.012;7.812;2023-02-28T07:05:52;2.97;;;2.77;;
9958;SDS011;5019;48.012;7.812;2023-02-28T07:08:18;4.43;;;4.00;;
9958;SDS011;5019;48.012;7.812;2023-02-28T07:10:44;2.40;;;2.30;;
9958;SDS011;5019;48.012;7.812;2023-02-28T07:13:10;2.80;;;1.98;;
9958;SDS011;5019;48.012;7.812;2023-02-28T07:15:36;4.28;;;3.85;;
9958;SDS011;5019;48.012;7.812;2023-02-28T07:18:03;2.25;;;2.15;;
9958;SDS011;5019;48.012;7.812;2023-02-28T07:20:29;3.53;;;3.22;;
9958;SDS011;5019;48.012;7.812;2023-02-28T07:22:55;10.45;;;4.15;;
9958;SDS011;5019;48.012;7.812;2023-02-28T07:25:28;4.13;;;2.88;;
9958;SDS011;5019;48.012;7.812;2023-02-28T07:27:54;3.05;;;2.85;;
9958;SDS011;5019;48.012;7.812;2023-02-28T07:30:21;3.45;;;3.25;;
9958;SDS011;5019;48.012;7.812;2023-02-28T07:32:47;7.88;;;3.33;;
9958;SDS011;5019;48.012;7.812;2023-02-28T07:35:13;3.47;;;2.95;;
9958;SDS011;5019;48.012;7.812;2023-02-28T07:37:40;4.57;;;4.28;;
9958;SDS011;5019;48.012;7.812;2023-02-28T07:40:08;2.55;;;2.40;;
9958;SDS011;5019;48.012;7.812;2023-02-28T07:42:35;3.22;;;2.92;;
9958;SDS011;5019;48.012;7.812;2023-02-28T07:45:01;2.38;;;2.25;;
9958;SDS011;5019;48.012;7.812;2023-02-28T07:47:28;3.20;;;3.00;;
9958;SDS011;5019;48.012;7.812;2023-02-28T07:49:55;3.95;;;3.33;;
9958;SDS011;5019;48.012;7.812;2023-02-28T07:52:21;7.68;;;2.40;;
9958;SDS011;5019;48.012;7.812;2023-02-28T07:54:48;3.17;;;2.92;;
9958;SDS011;5019;48.012;7.812;2023-02-28T07:57:14;3.92;;;3.63;;
9958;SDS011;5019;48.012;7.812;2023-02-28T07:59:40;2.92;;;2.72;;
9958;SDS011;5019;48.012;7.812;2023-02-28T08:02:06;4.72;;;4.40;;
9958;SDS011;5019;48.012;7.812;2023-02-28T08:04:34;3.90;;;3.47;;
9958;SDS011;5019;48.012;7.812;2023-02-28T08:07:00;3.53;;;3.43;;
9958;SDS011;5019;48.012;7.812;2023-02-28T08:09:26;3.17;;;2.50;;
9958;SDS011;5019;48.012;7.812;2023-02-28T08:11:52;2.47;;;2.33;;
9958;SDS011;5019;48.012;7.812;2023-02-28T08:14:18;3.30;;;3.03;;
9958;SDS011;5019;48.012;7.812;2023-02-28T08:16:44;4.53;;;2.60;;
9958;SDS011;5019;48.012;7.812;2023-02-28T08:19:10;11.30;;;4.97;;
9958;SDS011;5019;48.012;7.812;2023-02-28T08:21:36;3.57;;;3.23;;
9958;SDS011;5019;48.012;7.812;2023-02-28T08:24:02;4.30;;;3.70;;
9958;SDS011;5019;48.012;7.812;2023-02-28T08:26:27;4.60;;;3.30;;
9958;SDS011;5019;48.012;7.812;2023-02-28T08:28:53;3.43;;;3.13;;
9958;SDS011;5019;48.012;7.812;2023-02-28T08:31:19;3.60;;;2.63;;
9958;SDS011;5019;48.012;7.812;2023-02-28T08:33:45;5.03;;;4.37;;
9958;SDS011;5019;48.012;7.812;2023-02-28T08:36:14;3.43;;;3.23;;
9958;SDS011;5019;48.012;7.812;2023-02-28T08:38:40;3.17;;;2.97;;
9958;SDS011;5019;48.012;7.812;2023-02-28T08:41:07;4.32;;;3.10;;
9958;SDS011;5019;48.012;7.812;2023-02-28T08:43:33;4.73;;;4.30;;
9958;SDS011;5019;48.012;7.812;2023-02-28T08:45:59;5.47;;;3.57;;
9958;SDS011;5019;48.012;7.812;2023-02-28T08:48:26;2.47;;;2.23;;
9958;SDS011;5019;48.012;7.812;2023-02-28T08:50:56;8.90;;;4.17;;
9958;SDS011;5019;48.012;7.812;2023-02-28T08:53:23;3.03;;;2.23;;
9958;SDS011;5019;48.012;7.812;2023-02-28T08:55:58;4.00;;;3.43;;
9958;SDS011;5019;48.012;7.812;2023-02-28T08:58:25;4.67;;;4.40;;
9958;SDS011;5019;48.012;7.812;2023-02-28T09:00:51;3.37;;;3.07;;
9958;SDS011;5019;48.012;7.812;2023-02-28T09:03:17;3.47;;;3.25;;
9958;SDS011;5019;48.012;7.812;2023-02-28T09:05:57;1.47;;;1.47;;
9958;SDS011;5019;48.012;7.812;2023-02-28T09:08:23;6.10;;;4.20;;
9958;SDS011;5019;48.012;7.812;2023-02-28T09:10:50;2.90;;;2.80;;
9958;SDS011;5019;48.012;7.812;2023-02-28T09:13:16;4.57;;;3.57;;
9958;SDS011;5019;48.012;7.812;2023-02-28T09:15:42;5.30;;;3.07;;
9958;SDS011;5019;48.012;7.812;2023-02-28T09:18:08;2.13;;;2.03;;
9958;SDS011;5019;48.012;7.812;2023-02-28T09:20:36;3.60;;;3.40;;
9958;SDS011;5019;48.012;7.812;2023-02-28T09:23:03;5.40;;;3.40;;
9958;SDS011;5019;48.012;7.812;2023-02-28T09:25:29;1.70;;;1.70;;
9958;SDS011;5019;48.012;7.812;2023-02-28T09:27:55;2.73;;;2.50;;
9958;SDS011;5019;48.012;7.812;2023-02-28T09:30:21;4.10;;;3.80;;
9958;SDS011;5019;48.012;7.812;2023-02-28T09:32:47;5.20;;;4.43;;
9958;SDS011;5019;48.012;7.812;2023-02-28T09:35:18;5.03;;;4.10;;
9958;SDS011;5019;48.012;7.812;2023-02-28T09:37:46;6.90;;;3.63;;
9958;SDS011;5019;48.012;7.812;2023-02-28T09:40:12;4.17;;;3.73;;
9958;SDS011;5019;48.012;7.812;2023-02-28T09:42:39;5.97;;;3.83;;
9958;SDS011;5019;48.012;7.812;2023-02-28T09:45:51;4.30;;;3.83;;
9958;SDS011;5019;48.012;7.812;2023-02-28T09:47:53;3.93;;;3.30;;
9958;SDS011;5019;48.012;7.812;2023-02-28T09:50:32;5.83;;;5.10;;
9958;SDS011;5019;48.012;7.812;2023-02-28T09:53:01;4.03;;;3.60;;
9958;SDS011;5019;48.012;7.812;2023-02-28T09:55:33;5.80;;;4.40;;
9958;SDS011;5019;48.012;7.812;2023-02-28T09:58:00;4.03;;;3.40;;
9958;SDS011;5019;48.012;7.812;2023-02-28T10:00:33;6.63;;;4.13;;
9958;SDS011;5019;48.012;7.812;2023-02-28T10:05:33;3.63;;;3.37;;
9958;SDS011;5019;48.012;7.812;2023-02-28T10:12:59;5.10;;;4.00;;
9958;SDS011;5019;48.012;7.812;2023-02-28T10:15:27;4.90;;;3.80;;
9958;SDS011;5019;48.012;7.812;2023-02-28T10:17:57;4.90;;;4.40;;
9958;SDS011;5019;48.012;7.812;2023-02-28T10:20:24;6.30;;;4.50;;
9958;SDS011;5019;48.012;7.812;2023-02-28T10:23:12;5.00;;;3.97;;
9958;SDS011;5019;48.012;7.812;2023-02-28T10:25:40;4.37;;;3.97;;
9958;SDS011;5019;48.012;7.812;2023-02-28T10:28:13;4.47;;;3.47;;
9958;SDS011;5019;48.012;7.812;2023-02-28T10:30:47;8.00;;;4.90;;
9958;SDS011;5019;48.012;7.812;2023-02-28T10:33:18;3.40;;;3.20;;
9958;SDS011;5019;48.012;7.812;2023-02-28T10:35:44;4.13;;;3.77;;
9958;SDS011;5019;48.012;7.812;2023-02-28T10:38:18;6.03;;;4.03;;
9958;SDS011;5019;48.012;7.812;2023-02-28T10:40:44;4.70;;;4.23;;
9958;SDS011;5019;48.012;7.812;2023-02-28T10:45:39;5.17;;;4.03;;
9958;SDS011;5019;48.012;7.812;2023-02-28T10:55:42;7.57;;;4.97;;
9958;SDS011;5019;48.012;7.812;2023-02-28T10:58:21;6.20;;;4.80;;
9958;SDS011;5019;48.012;7.812;2023-02-28T11:00:48;6.97;;;4.00;;
9958;SDS011;5019;48.012;7.812;2023-02-28T11:05:56;6.23;;;4.30;;
9958;SDS011;5019;48.012;7.812;2023-02-28T11:08:22;6.17;;;3.50;;
9958;SDS011;5019;48.012;7.812;2023-02-28T11:10:58;5.23;;;3.87;;
9958;SDS011;5019;48.012;7.812;2023-02-28T11:13:33;8.90;;;5.07;;
9958;SDS011;5019;48.012;7.812;2023-02-28T11:16:00;5.80;;;4.90;;
9958;SDS011;5019;48.012;7.812;2023-02-28T11:21:03;4.77;;;4.30;;
9958;SDS011;5019;48.012;7.812;2023-02-28T11:23:30;4.37;;;3.97;;
9958;SDS011;5019;48.012;7.812;2023-02-28T11:25:59;5.43;;;4.70;;
9958;SDS011;5019;48.012;7.812;2023-02-28T11:28:29;4.77;;;4.17;;
9958;SDS011;5019;48.012;7.812;2023-02-28T11:31:04;5.77;;;4.30;;
9958;SDS011;5019;48.012;7.812;2023-02-28T11:36:14;6.73;;;4.73;;
9958;SDS011;5019;48.012;7.812;2023-02-28T11:38:40;5.20;;;4.53;;
9958;SDS011;5019;48.012;7.812;2023-02-28T11:41:17;5.90;;;4.90;;
9958;SDS011;5019;48.012;7.812;2023-02-28T11:44:02;11.77;;;4.90;;
9958;SDS011;5019;48.012;7.812;2023-02-28T11:46:41;6.80;;;4.73;;
9958;SDS011;5019;48.012;7.812;2023-02-28T11:49:20;6.07;;;4.20;;
9958;SDS011;5019;48.012;7.812;2023-02-28T11:54:24;7.43;;;4.40;;
9958;SDS011;5019;48.012;7.812;2023-02-28T11:56:58;6.97;;;4.80;;
9958;SDS011;5019;48.012;7.812;2023-02-28T12:04:47;4.83;;;4.43;;
9958;SDS011;5019;48.012;7.812;2023-02-28T12:07:26;5.60;;;4.90;;
9958;SDS011;5019;48.012;7.812;2023-02-28T12:09:59;6.37;;;4.80;;
9958;SDS011;5019;48.012;7.812;2023-02-28T12:17:59;2.70;;;2.50;;
9958;SDS011;5019;48.012;7.812;2023-02-28T12:27:00;5.77;;;4.33;;
9958;SDS011;5019;48.012;7.812;2023-02-28T12:28:57;6.97;;;4.30;;
9958;SDS011;5019;48.012;7.812;2023-02-28T12:31:27;5.07;;;4.57;;
9958;SDS011;5019;48.012;7.812;2023-02-28T12:33:59;5.00;;;4.53;;
9958;SDS011;5019;48.012;7.812;2023-02-28T12:36:26;7.50;;;5.63;;
9958;SDS011;5019;48.012;7.812;2023-02-28T12:38:58;7.73;;;4.67;;
9958;SDS011;5019;48.012;7.812;2023-02-28T12:41:33;6.63;;;4.80;;
9958;SDS011;5019;48.012;7.812;2023-02-28T12:44:02;4.50;;;3.90;;
9958;SDS011;5019;48.012;7.812;2023-02-28T12:46:32;6.23;;;5.00;;
9958;SDS011;5019;48.012;7.812;2023-02-28T12:48:59;7.80;;;5.07;;
9958;SDS011;5019;48.012;7.812;2023-02-28T12:51:26;6.47;;;4.93;;
9958;SDS011;5019;48.012;7.812;2023-02-28T12:53:54;6.03;;;4.50;;
9958;SDS011;5019;48.012;7.812;2023-02-28T12:59:00;6.50;;;4.17;;
9958;SDS011;5019;48.012;7.812;2023-02-28T13:01:32;4.93;;;4.47;;
9958;SDS011;5019;48.012;7.812;2023-02-28T13:09:13;4.83;;;4.43;;
9958;SDS011;5019;48.012;7.812;2023-02-28T13:11:52;5.07;;;4.27;;
9958;SDS011;5019;48.012;7.812;2023-02-28T13:19:17;5.00;;;4.13;;
9958;SDS011;5019;48.012;7.812;2023-02-28T13:21:45;7.80;;;4.60;;
9958;SDS011;5019;48.012;7.812;2023-02-28T13:24:11;8.47;;;4.43;;
9958;SDS011;5019;48.012;7.812;2023-02-28T13:29:33;6.70;;;4.43;;
9958;SDS011;5019;48.012;7.812;2023-02-28T13:34:33;5.00;;;4.60;;
9958;SDS011;5019;48.012;7.812;2023-02-28T13:42:51;5.00;;;4.60;;
9958;SDS011;5019;48.012;7.812;2023-02-28T13:47:29;5.43;;;4.77;;
9958;SDS011;5019;48.012;7.812;2023-02-28T13:50:14;6.93;;;3.90;;
9958;SDS011;5019;48.012;7.812;2023-02-28T13:52:45;6.90;;;4.53;;
9958;SDS011;5019;48.012;7.812;2023-02-28T14:05:29;9.07;;;4.97;;
9958;SDS011;5019;48.012;7.812;2023-02-28T14:07:57;5.27;;;4.27;;
9958;SDS011;5019;48.012;7.812;2023-02-28T14:10:25;6.30;;;4.90;;
9958;SDS011;5019;48.012;7.812;2023-02-28T14:17:54;6.13;;;5.53;;
9958;SDS011;5019;48.012;7.812;2023-02-28T14:20:21;7.80;;;5.27;;
9958;SDS011;5019;48.012;7.812;2023-02-28T14:30:40;6.73;;;4.80;;
9958;SDS011;5019;48.012;7.812;2023-02-28T14:33:13;5.20;;;4.03;;
9958;SDS011;5019;48.012;7.812;2023-02-28T14:38:16;6.57;;;4.87;;
9958;SDS011;5019;48.012;7.812;2023-02-28T14:40:43;8.20;;;5.13;;
9958;SDS011;5019;48.012;7.812;2023-02-28T14:43:23;8.43;;;5.33;;
9958;SDS011;5019;48.012;7.812;2023-02-28T14:45:57;6.00;;;4.90;;
9958;SDS011;5019;48.012;7.812;2023-02-28T14:48:23;5.77;;;4.40;;
9958;SDS011;5019;48.012;7.812;2023-02-28T14:50:51;6.27;;;4.37;;
9958;SDS011;5019;48.012;7.812;2023-02-28T14:53:18;7.80;;;4.40;;
9958;SDS011;5019;48.012;7.812;2023-02-28T14:55:46;8.93;;;5.83;;
9958;SDS011;5019;48.012;7.812;2023-02-28T14:58:17;7.53;;;5.30;;
9958;SDS011;5019;48.012;7.812;2023-02-28T15:00:46;7.90;;;3.53;;
9958;SDS011;5019;48.012;7.812;2023-02-28T15:03:17;10.33;;;5.70;;
9958;SDS011;5019;48.012;7.812;2023-02-28T15:05:51;8.17;;;5.60;;
9958;SDS011;5019;48.012;7.812;2023-02-28T15:08:17;4.13;;;3.57;;
9958;SDS011;5019;48.012;7.812;2023-02-28T15:10:49;6.80;;;4.80;;
9958;SDS011;5019;48.012;7.812;2023-02-28T15:13:16;8.20;;;4.47;;
9958;SDS011;5019;48.012;7.812;2023-02-28T15:18:11;9.53;;;5.80;;
9958;SDS011;5019;48.012;7.812;2023-02-28T15:20:40;10.33;;;5.23;;
9958;SDS011;5019;48.012;7.812;2023-02-28T15:23:07;5.73;;;5.20;;
9958;SDS011;5019;48.012;7.812;2023-02-28T15:25:34;7.07;;;5.70;;
9958;SDS011;5019;48.012;7.812;2023-02-28T15:28:00;8.50;;;5.73;;
9958;SDS011;5019;48.012;7.812;2023-02-28T15:30:27;5.67;;;4.60;;
9958;SDS011;5019;48.012;7.812;2023-02-28T15:35:38;7.77;;;6.37;;
9958;SDS011;5019;48.012;7.812;2023-02-28T15:40:37;7.70;;;5.40;;
9958;SDS011;5019;48.012;7.812;2023-02-28T15:43:05;19.23;;;6.17;;
9958;SDS011;5019;48.012;7.812;2023-02-28T15:45:32;8.50;;;5.63;;
9958;SDS011;5019;48.012;7.812;2023-02-28T15:48:02;7.10;;;5.27;;
9958;SDS011;5019;48.012;7.812;2023-02-28T15:50:28;12.13;;;5.70;;
9958;SDS011;5019;48.012;7.812;2023-02-28T15:52:54;7.63;;;5.53;;
9958;SDS011;5019;48.012;7.812;2023-02-28T15:55:21;7.10;;;5.47;;
9958;SDS011;5019;48.012;7.812;2023-02-28T15:57:49;7.40;;;5.30;;
9958;SDS011;5019;48.012;7.812;2023-02-28T16:00:18;10.03;;;6.10;;
9958;SDS011;5019;48.012;7.812;2023-02-28T16:02:44;6.83;;;5.70;;
9958;SDS011;5019;48.012;7.812;2023-02-28T16:07:37;7.00;;;5.80;;
9958;SDS011;5019;48.012;7.812;2023-02-28T16:10:04;6.33;;;4.90;;
9958;SDS011;5019;48.012;7.812;2023-02-28T16:12:32;7.53;;;5.20;;
9958;SDS011;5019;48.012;7.812;2023-02-28T16:14:59;8.23;;;5.17;;
9958;SDS011;5019;48.012;7.812;2023-02-28T16:17:28;7.53;;;5.10;;
9958;SDS011;5019;48.012;7.812;2023-02-28T16:19:54;8.60;;;5.67;;
9958;SDS011;5019;48.012;7.812;2023-02-28T16:22:21;9.13;;;5.50;;
9958;SDS011;5019;48.012;7.812;2023-02-28T16:24:47;8.37;;;5.50;;
9958;SDS011;5019;48.012;7.812;2023-02-28T16:27:17;9.20;;;6.10;;
9958;SDS011;5019;48.012;7.812;2023-02-28T16:29:44;8.77;;;5.70;;
9958;SDS011;5019;48.012;7.812;2023-02-28T16:32:11;7.43;;;4.57;;
9958;SDS011;5019;48.012;7.812;2023-02-28T16:34:37;11.67;;;6.17;;
9958;SDS011;5019;48.012;7.812;2023-02-28T16:37:04;9.20;;;5.90;;
9958;SDS011;5019;48.012;7.812;2023-02-28T16:39:30;8.50;;;6.00;;
9958;SDS011;5019;48.012;7.812;2023-02-28T16:41:56;10.67;;;5.80;;
9958;SDS011;5019;48.012;7.812;2023-02-28T16:46:51;8.80;;;5.33;;
9958;SDS011;5019;48.012;7.812;2023-02-28T16:49:17;9.47;;;6.00;;
9958;SDS011;5019;48.012;7.812;2023-02-28T16:51:44;5.90;;;5.07;;
9958;SDS011;5019;48.012;7.812;2023-02-28T16:54:10;8.30;;;6.30;;
9958;SDS011;5019;48.012;7.812;2023-02-28T16:56:36;6.90;;;5.53;;
9958;SDS011;5019;48.012;7.812;2023-02-28T16:59:03;7.00;;;5.07;;
9958;SDS011;5019;48.012;7.812;2023-02-28T17:01:28;12.30;;;4.33;;
9958;SDS011;5019;48.012;7.812;2023-02-28T17:03:55;6.33;;;4.07;;
9958;SDS011;5019;48.012;7.812;2023-02-28T17:06:22;8.40;;;5.40;;
9958;SDS011;5019;48.012;7.812;2023-02-28T17:08:49;10.30;;;5.40;;
9958;SDS011;5019;48.012;7.812;2023-02-28T17:11:15;7.40;;;5.67;;
9958;SDS011;5019;48.012;7.812;2023-02-28T17:13:41;6.60;;;5.27;;
9958;SDS011;5019;48.012;7.812;2023-02-28T17:16:11;9.90;;;6.57;;
9958;SDS011;5019;48.012;7.812;2023-02-28T17:18:40;8.47;;;6.53;;
9958;SDS011;5019;48.012;7.812;2023-02-28T17:21:11;10.60;;;5.87;;
9958;SDS011;5019;48.012;7.812;2023-02-28T17:23:38;5.57;;;5.03;;
9958;SDS011;5019;48.012;7.812;2023-02-28T17:26:04;7.03;;;5.23;;
9958;SDS011;5019;48.012;7.812;2023-02-28T17:28:31;6.03;;;5.10;;
9958;SDS011;5019;48.012;7.812;2023-02-28T17:30:57;10.10;;;6.73;;
9958;SDS011;5019;48.012;7.812;2023-02-28T17:33:23;8.80;;;5.57;;
9958;SDS011;5019;48.012;7.812;2023-02-28T17:35:49;5.73;;;4.87;;
9958;SDS011;5019;48.012;7.812;2023-02-28T17:38:16;8.60;;;5.30;;
9958;SDS011;5019;48.012;7.812;2023-02-28T17:40:43;9.87;;;7.67;;
9958;SDS011;5019;48.012;7.812;2023-02-28T17:43:09;8.70;;;5.10;;
9958;SDS011;5019;48.012;7.812;2023-02-28T17:45:35;11.13;;;6.73;;